sensor_id;sensor_type;location;lat;lon;timestamp;P1;durP1;ratioP1;P2;durP2;ratioP2
17796;SDS011;55596;53.554;9.916;2023-04-15T00:01:42;4.33;;;3.90;;
17796;SDS011;55596;53.554;9.916;2023-04-15T00:04:10;5.03;;;4.53;;
17796;SDS011;55596;53.554;9.916;2023-04-15T00:06:37;3.87;;;3.57;;
17796;SDS011;55596;53.554;9.916;2023-04-15T00:09:06;6.80;;;4.53;;
17796;SDS011;55596;53.554;9.916;2023-04-15T00:11:33;5.33;;;4.60;;
17796;SDS011;55596;53.554;9.916;2023-04-15T00:14:00;6.20;;;4.93;;
17796;SDS011;55596;53.554;9.916;2023-04-15T00:16:28;5.23;;;4.60;;
17796;SDS011;55596;53.554;9.916;2023-04-15T00:18:55;6.83;;;5.70;;
17796;SDS011;55596;53.554;9.916;2023-04-15T00:21:22;6.43;;;5.13;;
17796;SDS011;55596;53.554;9.916;2023-04-15T00:23:51;5.93;;;5.00;;
17796;SDS011;55596;53.554;9.916;2023-04-15T00:26:20;5.83;;;5.00;;
17796;SDS011;55596;53.554;9.916;2023-04-15T00:28:47;5.93;;;5.20;;
17796;SDS011;55596;53.554;9.916;2023-04-15T00:31:14;7.03;;;5.23;;
17796;SDS011;55596;53.554;9.916;2023-04-15T00:33:41;5.67;;;5.07;;
17796;SDS011;55596;53.554;9.916;2023-04-15T00:36:08;8.03;;;5.97;;
17796;SDS011;55596;53.554;9.916;2023-04-15T00:38:37;6.93;;;5.53;;
17796;SDS011;55596;53.554;9.916;2023-04-15T00:41:04;7.80;;;6.00;;
17796;SDS011;55596;53.554;9.916;2023-04-15T00:43:33;7.20;;;5.60;;
17796;SDS011;55596;53.554;9.916;2023-04-15T00:46:00;7.53;;;6.00;;
17796;SDS011;55596;53.554;9.916;2023-04-15T00:48:28;6.77;;;6.07;;
17796;SDS011;55596;53.554;9.916;2023-04-15T00:50:56;8.67;;;6.87;;
17796;SDS011;55596;53.554;9.916;2023-04-15T00:53:23;8.73;;;6.20;;
17796;SDS011;55596;53.554;9.916;2023-04-15T00:55:51;8.37;;;7.30;;
17796;SDS011;55596;53.554;9.916;2023-04-15T00:58:18;10.93;;;7.97;;
17796;SDS011;55596;53.554;9.916;2023-04-15T01:00:47;10.33;;;7.37;;
17796;SDS011;55596;53.554;9.916;2023-04-15T01:03:18;9.83;;;7.33;;
17796;SDS011;55596;53.554;9.916;2023-04-15T01:05:45;9.40;;;7.70;;
17796;SDS011;55596;53.554;9.916;2023-04-15T01:08:14;10.43;;;7.67;;
17796;SDS011;55596;53.554;9.916;2023-04-15T01:10:45;10.13;;;8.87;;
17796;SDS011;55596;53.554;9.916;2023-04-15T01:13:12;10.63;;;8.57;;
17796;SDS011;55596;53.554;9.916;2023-04-15T01:15:40;12.00;;;8.90;;
17796;SDS011;55596;53.554;9.916;2023-04-15T01:18:10;11.13;;;8.77;;
17796;SDS011;55596;53.554;9.916;2023-04-15T01:20:37;10.70;;;8.90;;
17796;SDS011;55596;53.554;9.916;2023-04-15T01:23:05;11.40;;;8.87;;
17796;SDS011;55596;53.554;9.916;2023-04-15T01:25:34;11.37;;;8.87;;
17796;SDS011;55596;53.554;9.916;2023-04-15T01:28:01;13.00;;;9.20;;
17796;SDS011;55596;53.554;9.916;2023-04-15T01:30:29;12.30;;;9.47;;
17796;SDS011;55596;53.554;9.916;2023-04-15T01:33:00;12.67;;;10.10;;
17796;SDS011;55596;53.554;9.916;2023-04-15T01:35:27;13.83;;;10.23;;
17796;SDS011;55596;53.554;9.916;2023-04-15T01:37:54;11.53;;;9.43;;
17796;SDS011;55596;53.554;9.916;2023-04-15T01:40:25;11.90;;;9.53;;
17796;SDS011;55596;53.554;9.916;2023-04-15T01:42:53;13.17;;;10.17;;
17796;SDS011;55596;53.554;9.916;2023-04-15T01:45:20;12.73;;;10.17;;
17796;SDS011;55596;53.554;9.916;2023-04-15T01:47:49;13.03;;;10.47;;
17796;SDS011;55596;53.554;9.916;2023-04-15T01:50:16;13.97;;;10.50;;
17796;SDS011;55596;53.554;9.916;2023-04-15T01:52:44;16.13;;;11.03;;
17796;SDS011;55596;53.554;9.916;2023-04-15T01:55:12;18.13;;;11.13;;
17796;SDS011;55596;53.554;9.916;2023-04-15T01:57:40;12.73;;;10.97;;
17796;SDS011;55596;53.554;9.916;2023-04-15T02:00:09;15.77;;;11.20;;
17796;SDS011;55596;53.554;9.916;2023-04-15T02:02:36;15.40;;;11.63;;
17796;SDS011;55596;53.554;9.916;2023-04-15T02:05:04;14.90;;;11.40;;
17796;SDS011;55596;53.554;9.916;2023-04-15T02:07:31;19.50;;;11.47;;
17796;SDS011;55596;53.554;9.916;2023-04-15T02:09:58;14.37;;;11.00;;
17796;SDS011;55596;53.554;9.916;2023-04-15T02:12:25;17.50;;;12.57;;
17796;SDS011;55596;53.554;9.916;2023-04-15T02:14:53;14.90;;;11.73;;
17796;SDS011;55596;53.554;9.916;2023-04-15T02:17:21;15.53;;;11.50;;
17796;SDS011;55596;53.554;9.916;2023-04-15T02:19:48;17.80;;;11.57;;
17796;SDS011;55596;53.554;9.916;2023-04-15T02:22:15;16.93;;;12.30;;
17796;SDS011;55596;53.554;9.916;2023-04-15T02:24:43;18.03;;;12.10;;
17796;SDS011;55596;53.554;9.916;2023-04-15T02:27:14;15.67;;;11.90;;
17796;SDS011;55596;53.554;9.916;2023-04-15T02:29:42;14.80;;;11.77;;
17796;SDS011;55596;53.554;9.916;2023-04-15T02:32:09;18.03;;;12.33;;
17796;SDS011;55596;53.554;9.916;2023-04-15T02:34:38;16.23;;;11.90;;
17796;SDS011;55596;53.554;9.916;2023-04-15T02:37:06;16.90;;;12.17;;
17796;SDS011;55596;53.554;9.916;2023-04-15T02:39:34;15.73;;;11.17;;
17796;SDS011;55596;53.554;9.916;2023-04-15T02:42:01;16.23;;;12.07;;
17796;SDS011;55596;53.554;9.916;2023-04-15T02:44:29;17.73;;;12.33;;
17796;SDS011;55596;53.554;9.916;2023-04-15T02:46:56;17.83;;;12.37;;
17796;SDS011;55596;53.554;9.916;2023-04-15T02:49:24;18.33;;;13.20;;
17796;SDS011;55596;53.554;9.916;2023-04-15T02:51:55;18.23;;;12.43;;
17796;SDS011;55596;53.554;9.916;2023-04-15T02:54:24;19.57;;;13.63;;
17796;SDS011;55596;53.554;9.916;2023-04-15T02:56:52;19.07;;;12.77;;
17796;SDS011;55596;53.554;9.916;2023-04-15T02:59:20;19.23;;;13.13;;
17796;SDS011;55596;53.554;9.916;2023-04-15T03:01:48;19.40;;;13.03;;
17796;SDS011;55596;53.554;9.916;2023-04-15T03:04:15;18.63;;;13.43;;
17796;SDS011;55596;53.554;9.916;2023-04-15T03:06:42;22.00;;;13.63;;
17796;SDS011;55596;53.554;9.916;2023-04-15T03:09:11;18.50;;;13.30;;
17796;SDS011;55596;53.554;9.916;2023-04-15T03:11:39;18.47;;;12.87;;
17796;SDS011;55596;53.554;9.916;2023-04-15T03:14:06;21.73;;;13.90;;
17796;SDS011;55596;53.554;9.916;2023-04-15T03:16:33;23.77;;;14.37;;
17796;SDS011;55596;53.554;9.916;2023-04-15T03:19:00;19.90;;;13.27;;
17796;SDS011;55596;53.554;9.916;2023-04-15T03:21:27;24.53;;;14.60;;
17796;SDS011;55596;53.554;9.916;2023-04-15T03:23:54;21.20;;;14.43;;
17796;SDS011;55596;53.554;9.916;2023-04-15T03:26:27;20.07;;;14.13;;
17796;SDS011;55596;53.554;9.916;2023-04-15T03:28:54;24.23;;;14.73;;
17796;SDS011;55596;53.554;9.916;2023-04-15T03:31:21;23.27;;;15.03;;
17796;SDS011;55596;53.554;9.916;2023-04-15T03:33:48;24.47;;;14.73;;
17796;SDS011;55596;53.554;9.916;2023-04-15T03:36:15;24.63;;;16.43;;
17796;SDS011;55596;53.554;9.916;2023-04-15T03:38:42;24.33;;;15.47;;
17796;SDS011;55596;53.554;9.916;2023-04-15T03:41:10;27.13;;;15.70;;
17796;SDS011;55596;53.554;9.916;2023-04-15T03:43:38;25.63;;;15.60;;
17796;SDS011;55596;53.554;9.916;2023-04-15T03:46:05;26.70;;;16.13;;
17796;SDS011;55596;53.554;9.916;2023-04-15T03:48:34;27.80;;;16.93;;
17796;SDS011;55596;53.554;9.916;2023-04-15T03:51:01;30.87;;;17.37;;
17796;SDS011;55596;53.554;9.916;2023-04-15T03:53:28;27.47;;;16.80;;
17796;SDS011;55596;53.554;9.916;2023-04-15T03:55:55;28.57;;;17.50;;
17796;SDS011;55596;53.554;9.916;2023-04-15T03:58:22;31.83;;;18.43;;
17796;SDS011;55596;53.554;9.916;2023-04-15T04:00:52;28.60;;;17.40;;
17796;SDS011;55596;53.554;9.916;2023-04-15T04:03:19;35.93;;;19.10;;
17796;SDS011;55596;53.554;9.916;2023-04-15T04:05:47;33.23;;;19.20;;
17796;SDS011;55596;53.554;9.916;2023-04-15T04:08:14;36.37;;;19.77;;
17796;SDS011;55596;53.554;9.916;2023-04-15T04:10:43;37.20;;;19.30;;
17796;SDS011;55596;53.554;9.916;2023-04-15T04:13:10;33.23;;;18.97;;
17796;SDS011;55596;53.554;9.916;2023-04-15T04:15:37;38.73;;;19.87;;
17796;SDS011;55596;53.554;9.916;2023-04-15T04:18:06;39.23;;;20.80;;
17796;SDS011;55596;53.554;9.916;2023-04-15T04:20:33;45.17;;;20.67;;
17796;SDS011;55596;53.554;9.916;2023-04-15T04:23:00;43.60;;;20.07;;
17796;SDS011;55596;53.554;9.916;2023-04-15T04:25:28;37.13;;;20.13;;
17796;SDS011;55596;53.554;9.916;2023-04-15T04:27:55;34.63;;;19.33;;
17796;SDS011;55596;53.554;9.916;2023-04-15T04:30:22;35.77;;;20.20;;
17796;SDS011;55596;53.554;9.916;2023-04-15T04:32:50;37.97;;;20.50;;
17796;SDS011;55596;53.554;9.916;2023-04-15T04:35:19;39.47;;;20.67;;
17796;SDS011;55596;53.554;9.916;2023-04-15T04:37:46;41.37;;;20.40;;
17796;SDS011;55596;53.554;9.916;2023-04-15T04:40:14;40.50;;;20.67;;
17796;SDS011;55596;53.554;9.916;2023-04-15T04:42:41;36.70;;;20.13;;
17796;SDS011;55596;53.554;9.916;2023-04-15T04:45:08;41.67;;;22.43;;
17796;SDS011;55596;53.554;9.916;2023-04-15T04:47:35;42.10;;;22.57;;
17796;SDS011;55596;53.554;9.916;2023-04-15T04:50:03;41.87;;;23.50;;
17796;SDS011;55596;53.554;9.916;2023-04-15T04:52:32;49.13;;;23.60;;
17796;SDS011;55596;53.554;9.916;2023-04-15T04:54:59;52.97;;;24.80;;
17796;SDS011;55596;53.554;9.916;2023-04-15T04:57:26;49.93;;;24.63;;
17796;SDS011;55596;53.554;9.916;2023-04-15T04:59:53;50.57;;;25.97;;
17796;SDS011;55596;53.554;9.916;2023-04-15T05:02:20;47.97;;;25.60;;
17796;SDS011;55596;53.554;9.916;2023-04-15T05:04:48;49.70;;;25.07;;
17796;SDS011;55596;53.554;9.916;2023-04-15T05:07:18;53.13;;;26.47;;
17796;SDS011;55596;53.554;9.916;2023-04-15T05:09:47;57.27;;;27.60;;
17796;SDS011;55596;53.554;9.916;2023-04-15T05:12:15;56.00;;;27.10;;
17796;SDS011;55596;53.554;9.916;2023-04-15T05:14:42;70.50;;;29.73;;
17796;SDS011;55596;53.554;9.916;2023-04-15T05:17:10;60.03;;;28.33;;
17796;SDS011;55596;53.554;9.916;2023-04-15T05:19:38;59.90;;;28.13;;
17796;SDS011;55596;53.554;9.916;2023-04-15T05:22:05;58.47;;;29.10;;
17796;SDS011;55596;53.554;9.916;2023-04-15T05:24:32;57.00;;;28.30;;
17796;SDS011;55596;53.554;9.916;2023-04-15T05:27:01;71.07;;;30.57;;
17796;SDS011;55596;53.554;9.916;2023-04-15T05:29:28;62.73;;;29.50;;
17796;SDS011;55596;53.554;9.916;2023-04-15T05:31:55;70.10;;;30.83;;
17796;SDS011;55596;53.554;9.916;2023-04-15T05:34:22;70.20;;;32.00;;
17796;SDS011;55596;53.554;9.916;2023-04-15T05:36:50;70.37;;;30.90;;
17796;SDS011;55596;53.554;9.916;2023-04-15T05:39:17;79.73;;;32.23;;
17796;SDS011;55596;53.554;9.916;2023-04-15T05:41:47;74.03;;;32.57;;
17796;SDS011;55596;53.554;9.916;2023-04-15T05:44:15;72.87;;;33.13;;
17796;SDS011;55596;53.554;9.916;2023-04-15T05:46:43;71.13;;;33.03;;
17796;SDS011;55596;53.554;9.916;2023-04-15T05:49:10;74.90;;;34.10;;
17796;SDS011;55596;53.554;9.916;2023-04-15T05:51:37;74.93;;;34.17;;
17796;SDS011;55596;53.554;9.916;2023-04-15T05:54:05;77.80;;;34.70;;
17796;SDS011;55596;53.554;9.916;2023-04-15T05:56:32;70.40;;;33.97;;
17796;SDS011;55596;53.554;9.916;2023-04-15T05:58:59;68.70;;;32.80;;
17796;SDS011;55596;53.554;9.916;2023-04-15T06:01:28;78.43;;;35.43;;
17796;SDS011;55596;53.554;9.916;2023-04-15T06:03:55;70.80;;;34.53;;
17796;SDS011;55596;53.554;9.916;2023-04-15T06:06:22;71.60;;;34.83;;
17796;SDS011;55596;53.554;9.916;2023-04-15T06:08:51;74.50;;;35.50;;
17796;SDS011;55596;53.554;9.916;2023-04-15T06:11:19;76.87;;;35.30;;
17796;SDS011;55596;53.554;9.916;2023-04-15T06:13:47;72.23;;;35.67;;
17796;SDS011;55596;53.554;9.916;2023-04-15T06:16:14;67.10;;;34.13;;
17796;SDS011;55596;53.554;9.916;2023-04-15T06:18:43;72.80;;;36.27;;
17796;SDS011;55596;53.554;9.916;2023-04-15T06:21:10;65.63;;;33.97;;
17796;SDS011;55596;53.554;9.916;2023-04-15T06:23:37;66.37;;;35.27;;
17796;SDS011;55596;53.554;9.916;2023-04-15T06:26:06;79.27;;;39.83;;
17796;SDS011;55596;53.554;9.916;2023-04-15T06:28:33;82.10;;;38.30;;
17796;SDS011;55596;53.554;9.916;2023-04-15T06:31:00;76.63;;;36.80;;
17796;SDS011;55596;53.554;9.916;2023-04-15T06:33:28;77.00;;;37.97;;
17796;SDS011;55596;53.554;9.916;2023-04-15T06:35:57;67.70;;;36.50;;
17796;SDS011;55596;53.554;9.916;2023-04-15T06:38:24;76.03;;;38.07;;
17796;SDS011;55596;53.554;9.916;2023-04-15T06:40:51;83.07;;;38.53;;
17796;SDS011;55596;53.554;9.916;2023-04-15T06:43:18;80.60;;;39.97;;
17796;SDS011;55596;53.554;9.916;2023-04-15T06:45:45;81.63;;;39.50;;
17796;SDS011;55596;53.554;9.916;2023-04-15T06:48:13;74.80;;;39.43;;
17796;SDS011;55596;53.554;9.916;2023-04-15T06:50:40;77.50;;;40.20;;
17796;SDS011;55596;53.554;9.916;2023-04-15T06:53:08;78.07;;;39.67;;
17796;SDS011;55596;53.554;9.916;2023-04-15T06:55:36;75.23;;;40.70;;
17796;SDS011;55596;53.554;9.916;2023-04-15T06:58:03;80.27;;;40.70;;
17796;SDS011;55596;53.554;9.916;2023-04-15T07:00:30;77.50;;;41.50;;
17796;SDS011;55596;53.554;9.916;2023-04-15T07:02:58;74.97;;;41.10;;
17796;SDS011;55596;53.554;9.916;2023-04-15T07:05:27;78.10;;;41.40;;
17796;SDS011;55596;53.554;9.916;2023-04-15T07:07:55;73.00;;;41.47;;
17796;SDS011;55596;53.554;9.916;2023-04-15T07:10:23;83.43;;;42.73;;
17796;SDS011;55596;53.554;9.916;2023-04-15T07:12:50;79.90;;;43.67;;
17796;SDS011;55596;53.554;9.916;2023-04-15T07:15:18;79.80;;;43.17;;
17796;SDS011;55596;53.554;9.916;2023-04-15T07:17:45;71.93;;;41.93;;
17796;SDS011;55596;53.554;9.916;2023-04-15T07:20:12;68.63;;;43.10;;
17796;SDS011;55596;53.554;9.916;2023-04-15T07:22:39;75.07;;;43.60;;
17796;SDS011;55596;53.554;9.916;2023-04-15T07:25:07;73.63;;;42.60;;
17796;SDS011;55596;53.554;9.916;2023-04-15T07:27:35;77.47;;;44.33;;
17796;SDS011;55596;53.554;9.916;2023-04-15T07:30:03;72.20;;;42.70;;
17796;SDS011;55596;53.554;9.916;2023-04-15T07:32:30;74.37;;;42.60;;
17796;SDS011;55596;53.554;9.916;2023-04-15T07:34:57;69.87;;;42.97;;
17796;SDS011;55596;53.554;9.916;2023-04-15T07:37:24;72.63;;;44.10;;
17796;SDS011;55596;53.554;9.916;2023-04-15T07:39:52;67.77;;;40.83;;
17796;SDS011;55596;53.554;9.916;2023-04-15T07:42:19;65.13;;;41.17;;
17796;SDS011;55596;53.554;9.916;2023-04-15T07:44:48;70.90;;;42.63;;
17796;SDS011;55596;53.554;9.916;2023-04-15T07:47:15;69.10;;;41.43;;
17796;SDS011;55596;53.554;9.916;2023-04-15T07:49:42;70.73;;;43.27;;
17796;SDS011;55596;53.554;9.916;2023-04-15T07:52:09;68.77;;;41.47;;
17796;SDS011;55596;53.554;9.916;2023-04-15T07:54:37;69.47;;;41.23;;
17796;SDS011;55596;53.554;9.916;2023-04-15T07:57:04;66.73;;;40.37;;
17796;SDS011;55596;53.554;9.916;2023-04-15T07:59:32;71.07;;;41.80;;
17796;SDS011;55596;53.554;9.916;2023-04-15T08:02:00;68.60;;;42.87;;
17796;SDS011;55596;53.554;9.916;2023-04-15T08:04:28;68.17;;;43.13;;
17796;SDS011;55596;53.554;9.916;2023-04-15T08:06:55;73.27;;;42.20;;
17796;SDS011;55596;53.554;9.916;2023-04-15T08:09:22;70.63;;;44.23;;
17796;SDS011;55596;53.554;9.916;2023-04-15T08:11:51;77.57;;;42.87;;
17796;SDS011;55596;53.554;9.916;2023-04-15T08:14:18;76.37;;;44.40;;
17796;SDS011;55596;53.554;9.916;2023-04-15T08:16:45;73.27;;;43.03;;
17796;SDS011;55596;53.554;9.916;2023-04-15T08:19:14;68.87;;;41.23;;
17796;SDS011;55596;53.554;9.916;2023-04-15T08:21:41;76.13;;;44.63;;
17796;SDS011;55596;53.554;9.916;2023-04-15T08:24:08;70.53;;;41.47;;
17796;SDS011;55596;53.554;9.916;2023-04-15T08:26:35;68.43;;;42.00;;
17796;SDS011;55596;53.554;9.916;2023-04-15T08:29:02;70.07;;;43.43;;
17796;SDS011;55596;53.554;9.916;2023-04-15T08:31:29;70.40;;;43.20;;
17796;SDS011;55596;53.554;9.916;2023-04-15T08:33:57;64.33;;;42.50;;
17796;SDS011;55596;53.554;9.916;2023-04-15T08:36:28;70.00;;;42.37;;
17796;SDS011;55596;53.554;9.916;2023-04-15T08:38:56;63.57;;;40.13;;
17796;SDS011;55596;53.554;9.916;2023-04-15T08:41:25;62.57;;;38.97;;
17796;SDS011;55596;53.554;9.916;2023-04-15T08:43:53;63.00;;;39.97;;
17796;SDS011;55596;53.554;9.916;2023-04-15T08:46:22;63.17;;;39.73;;
17796;SDS011;55596;53.554;9.916;2023-04-15T08:48:50;68.30;;;41.23;;
17796;SDS011;55596;53.554;9.916;2023-04-15T08:51:17;55.60;;;38.73;;
17796;SDS011;55596;53.554;9.916;2023-04-15T08:53:46;56.50;;;37.97;;
17796;SDS011;55596;53.554;9.916;2023-04-15T08:56:14;53.70;;;36.90;;
17796;SDS011;55596;53.554;9.916;2023-04-15T08:58:42;62.83;;;44.50;;
17796;SDS011;55596;53.554;9.916;2023-04-15T09:01:10;50.60;;;34.57;;
17796;SDS011;55596;53.554;9.916;2023-04-15T09:03:37;51.33;;;35.37;;
17796;SDS011;55596;53.554;9.916;2023-04-15T09:06:05;45.57;;;32.63;;
17796;SDS011;55596;53.554;9.916;2023-04-15T09:08:32;47.93;;;33.30;;
17796;SDS011;55596;53.554;9.916;2023-04-15T09:11:01;44.03;;;31.40;;
17796;SDS011;55596;53.554;9.916;2023-04-15T09:13:28;42.73;;;31.67;;
17796;SDS011;55596;53.554;9.916;2023-04-15T09:15:56;42.13;;;30.57;;
17796;SDS011;55596;53.554;9.916;2023-04-15T09:18:27;39.97;;;31.80;;
17796;SDS011;55596;53.554;9.916;2023-04-15T09:20:54;41.30;;;31.40;;
17796;SDS011;55596;53.554;9.916;2023-04-15T09:23:22;49.20;;;32.10;;
17796;SDS011;55596;53.554;9.916;2023-04-15T09:25:49;41.13;;;30.57;;
17796;SDS011;55596;53.554;9.916;2023-04-15T09:28:24;42.73;;;31.37;;
17796;SDS011;55596;53.554;9.916;2023-04-15T09:30:54;43.77;;;33.33;;
17796;SDS011;55596;53.554;9.916;2023-04-15T09:33:21;45.10;;;33.20;;
17796;SDS011;55596;53.554;9.916;2023-04-15T09:35:56;42.90;;;31.50;;
17796;SDS011;55596;53.554;9.916;2023-04-15T09:38:24;43.87;;;31.77;;
17796;SDS011;55596;53.554;9.916;2023-04-15T09:40:51;47.07;;;36.23;;
17796;SDS011;55596;53.554;9.916;2023-04-15T09:43:18;41.97;;;29.93;;
17796;SDS011;55596;53.554;9.916;2023-04-15T09:45:48;37.53;;;30.17;;
17796;SDS011;55596;53.554;9.916;2023-04-15T09:48:16;36.13;;;27.83;;
17796;SDS011;55596;53.554;9.916;2023-04-15T09:50:45;36.43;;;27.53;;
17796;SDS011;55596;53.554;9.916;2023-04-15T09:53:14;34.60;;;27.13;;
17796;SDS011;55596;53.554;9.916;2023-04-15T09:55:43;36.17;;;26.73;;
17796;SDS011;55596;53.554;9.916;2023-04-15T09:58:16;33.83;;;26.37;;
17796;SDS011;55596;53.554;9.916;2023-04-15T10:00:43;32.13;;;24.90;;
17796;SDS011;55596;53.554;9.916;2023-04-15T10:03:14;36.87;;;24.93;;
17796;SDS011;55596;53.554;9.916;2023-04-15T10:05:44;38.07;;;26.83;;
17796;SDS011;55596;53.554;9.916;2023-04-15T10:08:13;34.10;;;26.07;;
17796;SDS011;55596;53.554;9.916;2023-04-15T10:10:41;40.07;;;27.33;;
17796;SDS011;55596;53.554;9.916;2023-04-15T10:13:08;32.13;;;24.33;;
17796;SDS011;55596;53.554;9.916;2023-04-15T10:15:36;29.60;;;23.00;;
17796;SDS011;55596;53.554;9.916;2023-04-15T10:18:04;30.60;;;24.33;;
17796;SDS011;55596;53.554;9.916;2023-04-15T10:20:33;36.10;;;26.03;;
17796;SDS011;55596;53.554;9.916;2023-04-15T10:23:01;37.97;;;25.83;;
17796;SDS011;55596;53.554;9.916;2023-04-15T10:25:28;28.73;;;22.80;;
17796;SDS011;55596;53.554;9.916;2023-04-15T10:27:56;30.47;;;22.80;;
17796;SDS011;55596;53.554;9.916;2023-04-15T10:30:23;27.57;;;21.63;;
17796;SDS011;55596;53.554;9.916;2023-04-15T10:32:50;25.90;;;20.67;;
17796;SDS011;55596;53.554;9.916;2023-04-15T10:35:18;27.80;;;19.83;;
17796;SDS011;55596;53.554;9.916;2023-04-15T10:37:48;27.17;;;20.97;;
17796;SDS011;55596;53.554;9.916;2023-04-15T10:40:28;24.77;;;20.67;;
17796;SDS011;55596;53.554;9.916;2023-04-15T10:42:57;26.10;;;20.87;;
17796;SDS011;55596;53.554;9.916;2023-04-15T10:45:25;27.10;;;21.50;;
17796;SDS011;55596;53.554;9.916;2023-04-15T10:47:54;29.10;;;21.03;;
17796;SDS011;55596;53.554;9.916;2023-04-15T10:50:24;24.90;;;19.70;;
17796;SDS011;55596;53.554;9.916;2023-04-15T10:52:54;24.13;;;19.33;;
17796;SDS011;55596;53.554;9.916;2023-04-15T10:55:22;28.97;;;22.70;;
17796;SDS011;55596;53.554;9.916;2023-04-15T10:57:50;26.00;;;17.73;;
17796;SDS011;55596;53.554;9.916;2023-04-15T11:00:19;26.20;;;20.10;;
17796;SDS011;55596;53.554;9.916;2023-04-15T11:02:47;24.97;;;20.47;;
17796;SDS011;55596;53.554;9.916;2023-04-15T11:05:18;24.87;;;17.30;;
17796;SDS011;55596;53.554;9.916;2023-04-15T11:07:46;19.23;;;16.00;;
17796;SDS011;55596;53.554;9.916;2023-04-15T11:13:16;18.83;;;15.03;;
17796;SDS011;55596;53.554;9.916;2023-04-15T11:15:45;16.23;;;14.07;;
17796;SDS011;55596;53.554;9.916;2023-04-15T11:18:13;20.67;;;15.13;;
17796;SDS011;55596;53.554;9.916;2023-04-15T11:20:41;17.00;;;14.10;;
17796;SDS011;55596;53.554;9.916;2023-04-15T11:23:09;14.13;;;12.23;;
17796;SDS011;55596;53.554;9.916;2023-04-15T11:25:36;14.47;;;11.23;;
17796;SDS011;55596;53.554;9.916;2023-04-15T11:28:03;14.00;;;10.80;;
17796;SDS011;55596;53.554;9.916;2023-04-15T11:30:33;14.73;;;11.43;;
17796;SDS011;55596;53.554;9.916;2023-04-15T11:33:02;11.30;;;9.97;;
17796;SDS011;55596;53.554;9.916;2023-04-15T11:35:29;13.57;;;9.63;;
17796;SDS011;55596;53.554;9.916;2023-04-15T11:37:56;14.27;;;10.73;;
17796;SDS011;55596;53.554;9.916;2023-04-15T11:40:25;11.60;;;8.43;;
17796;SDS011;55596;53.554;9.916;2023-04-15T11:43:02;11.17;;;9.60;;
17796;SDS011;55596;53.554;9.916;2023-04-15T11:45:30;12.03;;;8.90;;
17796;SDS011;55596;53.554;9.916;2023-04-15T11:48:05;10.50;;;9.13;;
17796;SDS011;55596;53.554;9.916;2023-04-15T11:50:32;11.60;;;8.70;;
17796;SDS011;55596;53.554;9.916;2023-04-15T11:53:00;13.47;;;8.83;;
17796;SDS011;55596;53.554;9.916;2023-04-15T11:55:27;11.20;;;8.77;;
17796;SDS011;55596;53.554;9.916;2023-04-15T11:58:07;8.60;;;7.63;;
17796;SDS011;55596;53.554;9.916;2023-04-15T12:00:35;9.00;;;7.17;;
17796;SDS011;55596;53.554;9.916;2023-04-15T12:03:15;11.50;;;7.83;;
17796;SDS011;55596;53.554;9.916;2023-04-15T12:08:47;10.07;;;8.70;;
17796;SDS011;55596;53.554;9.916;2023-04-15T12:11:15;11.40;;;8.27;;
17796;SDS011;55596;53.554;9.916;2023-04-15T12:13:42;9.50;;;7.73;;
17796;SDS011;55596;53.554;9.916;2023-04-15T12:16:09;10.17;;;7.90;;
17796;SDS011;55596;53.554;9.916;2023-04-15T12:18:38;9.23;;;7.77;;
17796;SDS011;55596;53.554;9.916;2023-04-15T12:21:08;9.53;;;8.07;;
17796;SDS011;55596;53.554;9.916;2023-04-15T12:23:36;11.77;;;8.03;;
17796;SDS011;55596;53.554;9.916;2023-04-15T12:26:03;9.10;;;7.43;;
17796;SDS011;55596;53.554;9.916;2023-04-15T12:28:32;9.23;;;8.20;;
17796;SDS011;55596;53.554;9.916;2023-04-15T12:31:05;10.27;;;8.20;;
17796;SDS011;55596;53.554;9.916;2023-04-15T12:33:33;12.60;;;8.20;;
17796;SDS011;55596;53.554;9.916;2023-04-15T12:36:01;9.87;;;8.37;;
17796;SDS011;55596;53.554;9.916;2023-04-15T12:38:29;9.83;;;7.70;;
17796;SDS011;55596;53.554;9.916;2023-04-15T12:40:56;10.07;;;8.00;;
17796;SDS011;55596;53.554;9.916;2023-04-15T12:43:24;9.33;;;7.77;;
17796;SDS011;55596;53.554;9.916;2023-04-15T12:45:51;8.40;;;7.30;;
17796;SDS011;55596;53.554;9.916;2023-04-15T12:48:18;8.27;;;6.77;;
17796;SDS011;55596;53.554;9.916;2023-04-15T12:50:45;9.00;;;7.87;;
17796;SDS011;55596;53.554;9.916;2023-04-15T12:53:14;11.57;;;7.77;;
17796;SDS011;55596;53.554;9.916;2023-04-15T12:55:41;9.10;;;7.77;;
17796;SDS011;55596;53.554;9.916;2023-04-15T12:58:08;11.13;;;7.93;;
17796;SDS011;55596;53.554;9.916;2023-04-15T13:00:36;8.93;;;7.57;;
17796;SDS011;55596;53.554;9.916;2023-04-15T13:03:04;11.17;;;8.00;;
17796;SDS011;55596;53.554;9.916;2023-04-15T13:05:31;8.47;;;7.67;;
17796;SDS011;55596;53.554;9.916;2023-04-15T13:08:01;10.23;;;7.90;;
17796;SDS011;55596;53.554;9.916;2023-04-15T13:10:35;10.73;;;7.50;;
17796;SDS011;55596;53.554;9.916;2023-04-15T13:13:07;10.20;;;7.77;;
17796;SDS011;55596;53.554;9.916;2023-04-15T13:15:35;9.00;;;7.43;;
17796;SDS011;55596;53.554;9.916;2023-04-15T13:18:02;11.17;;;7.53;;
17796;SDS011;55596;53.554;9.916;2023-04-15T13:20:31;9.60;;;7.53;;
17796;SDS011;55596;53.554;9.916;2023-04-15T13:22:58;9.53;;;8.07;;
17796;SDS011;55596;53.554;9.916;2023-04-15T13:25:25;11.20;;;7.87;;
17796;SDS011;55596;53.554;9.916;2023-04-15T13:27:55;8.00;;;7.20;;
17796;SDS011;55596;53.554;9.916;2023-04-15T13:30:25;12.07;;;7.50;;
17796;SDS011;55596;53.554;9.916;2023-04-15T13:32:52;10.00;;;7.90;;
17796;SDS011;55596;53.554;9.916;2023-04-15T13:35:20;9.07;;;7.30;;
17796;SDS011;55596;53.554;9.916;2023-04-15T13:37:47;7.93;;;6.70;;
17796;SDS011;55596;53.554;9.916;2023-04-15T13:40:15;8.93;;;6.53;;
17796;SDS011;55596;53.554;9.916;2023-04-15T13:42:42;10.13;;;6.60;;
17796;SDS011;55596;53.554;9.916;2023-04-15T13:45:11;11.77;;;6.97;;
17796;SDS011;55596;53.554;9.916;2023-04-15T13:47:38;9.17;;;7.23;;
17796;SDS011;55596;53.554;9.916;2023-04-15T13:50:06;9.83;;;7.23;;
17796;SDS011;55596;53.554;9.916;2023-04-15T13:52:34;9.07;;;7.37;;
17796;SDS011;55596;53.554;9.916;2023-04-15T13:55:01;8.27;;;6.30;;
17796;SDS011;55596;53.554;9.916;2023-04-15T13:57:29;7.55;;;6.68;;
17796;SDS011;55596;53.554;9.916;2023-04-15T13:59:57;9.73;;;7.07;;
17796;SDS011;55596;53.554;9.916;2023-04-15T14:02:27;8.40;;;7.05;;
17796;SDS011;55596;53.554;9.916;2023-04-15T14:04:56;8.13;;;6.38;;
17796;SDS011;55596;53.554;9.916;2023-04-15T14:07:23;9.15;;;7.05;;
17796;SDS011;55596;53.554;9.916;2023-04-15T14:09:51;7.88;;;6.13;;
17796;SDS011;55596;53.554;9.916;2023-04-15T14:12:18;6.60;;;5.75;;
17796;SDS011;55596;53.554;9.916;2023-04-15T14:14:45;8.65;;;5.55;;
17796;SDS011;55596;53.554;9.916;2023-04-15T14:17:12;8.88;;;5.75;;
17796;SDS011;55596;53.554;9.916;2023-04-15T14:19:41;8.20;;;5.88;;
17796;SDS011;55596;53.554;9.916;2023-04-15T14:22:08;5.95;;;5.45;;
17796;SDS011;55596;53.554;9.916;2023-04-15T14:24:35;6.72;;;6.03;;
17796;SDS011;55596;53.554;9.916;2023-04-15T14:27:02;7.40;;;6.20;;
17796;SDS011;55596;53.554;9.916;2023-04-15T14:29:30;7.55;;;6.53;;
17796;SDS011;55596;53.554;9.916;2023-04-15T14:31:57;9.55;;;6.07;;
17796;SDS011;55596;53.554;9.916;2023-04-15T14:34:25;8.02;;;5.97;;
17796;SDS011;55596;53.554;9.916;2023-04-15T14:36:53;10.48;;;6.88;;
17796;SDS011;55596;53.554;9.916;2023-04-15T14:39:20;7.05;;;6.30;;